Time;durP1;ratioP1;P1;durP2;ratioP2;P2;SDS_P1;SDS_P2;PMS_P1;PMS_P2;Temp;Humidity;BMP_temperature;BMP_pressure;BME280_temperature;BME280_humidity;BME280_pressure;Samples;Min_cycle;Max_cycle;Signal;HPM_P1;HPM_P2
2023/08/04 00:01:35;;;;;;;;;;;;;;;;;;2199978;59;1683;-24
2023/08/04 00:04:05;;;;;;;;;;;;;;;;;;2200257;59;1554;-24
2023/08/04 00:06:35;;;;;;;;;;;;;;;;;;2200027;66;2261;-24
2023/08/04 00:09:05;;;;;;;;;;;;;;;;;;2201875;66;1931;-24
2023/08/04 00:11:36;;;;;;;;;;;;;;;;;;2200868;59;1836;-24
2023/08/04 00:14:06;;;;;;;;;;;;;;;;;;2200009;66;1932;-24
2023/08/04 00:16:37;;;;;;;;;;;;;;;;;;2198829;66;1890;-24
2023/08/04 00:19:07;;;;;;;;;;;;;;;;;;2200293;59;1802;-24
2023/08/04 00:21:40;;;;;;;;;;;;;;;;;;2202024;59;2359;-24
2023/08/04 00:24:10;;;;;;;;;;;;;;;;;;2199814;66;2603;-24
2023/08/04 00:26:43;;;;;;;;;;;;;;;;;;2199617;59;1929;-24
2023/08/04 00:29:13;;;;;;;;;;;;;;;;;;2199379;59;1457;-24
2023/08/04 00:31:44;;;;;;;;;;;;;;;;;;2200936;59;2033;-24
2023/08/04 00:34:14;;;;;;;;;;;;;;;;;;2200836;59;1936;-24
2023/08/04 00:36:45;;;;;;;;;;;;;;;;;;2200655;66;1831;-24
2023/08/04 00:39:15;;;;;;;;;;;;;;;;;;2199302;67;1763;-24
2023/08/04 00:41:45;;;;;;;;;;;;;;;;;;2200542;66;2429;-24
2023/08/04 00:44:16;;;;;;;;;;;;;;;;;;2199332;59;1498;-24
2023/08/04 00:46:46;;;;;;;;;;;;;;;;;;2199762;66;2059;-24
2023/08/04 00:49:18;;;;;;;;;;;;;;;;;;2200498;59;2619;-24
2023/08/04 00:51:48;;;;;;;;;;;;;;;;;;2201032;59;2461;-24
2023/08/04 00:54:18;;;;;;;;;;;;;;;;;;2199356;59;1945;-24
2023/08/04 00:56:50;;;;;;;;;;;;;;;;;;2199400;59;2789;-24
2023/08/04 00:59:20;;;;;;;;;;;;;;;;;;2200066;66;1815;-24
2023/08/04 01:01:50;;;;;;;;;;;;;;;;;;2199717;59;1687;-24
2023/08/04 01:04:20;;;;;;;;;;;;;;;;;;2199253;59;1848;-24
2023/08/04 01:07:10;;;;;;;;;;;;;;;;;;2200022;66;1805;-24
2023/08/04 01:09:40;;;;;;;;;;;;;;;;;;2200094;66;2095;-24
2023/08/04 01:12:26;;;;;;;;;;;;;;;;;;2199755;59;1607;-24
2023/08/04 01:14:56;;;;;;;;;;;;;;;;;;2199107;66;2135;-24
2023/08/04 01:17:28;;;;;;;;;;;;;;;;;;2200749;59;1864;-24
2023/08/04 01:19:58;;;;;;;;;;;;;;;;;;2199731;59;1467;-24
2023/08/04 01:22:29;;;;;;;;;;;;;;;;;;2199444;66;1951;-24
2023/08/04 01:24:59;;;;;;;;;;;;;;;;;;2200334;66;2794;-24
2023/08/04 01:27:35;;;;;;;;;;;;;;;;;;2200075;59;1841;-24
2023/08/04 01:30:07;;;;;;;;;;;;;;;;;;2199915;66;1904;-24
2023/08/04 01:32:37;;;;;;;;;;;;;;;;;;2200486;59;2905;-24
2023/08/04 01:35:08;;;;;;;;;;;;;;;;;;2198823;66;1950;-24
2023/08/04 01:37:38;;;;;;;;;;;;;;;;;;2199455;67;1826;-24
2023/08/04 01:40:09;;;;;;;;;;;;;;;;;;2199102;66;1871;-24
2023/08/04 01:42:39;;;;;;;;;;;;;;;;;;2199235;59;2061;-24
2023/08/04 01:45:12;;;;;;;;;;;;;;;;;;2198806;59;2432;-24
2023/08/04 01:47:44;;;;;;;;;;;;;;;;;;2199624;67;2597;-24
2023/08/04 01:50:14;;;;;;;;;;;;;;;;;;2200218;66;2088;-24
2023/08/04 01:52:47;;;;;;;;;;;;;;;;;;2200091;58;1494;-24
2023/08/04 01:55:18;;;;;;;;;;;;;;;;;;2199201;59;1944;-24
2023/08/04 01:57:48;;;;;;;;;;;;;;;;;;2198729;59;2375;-24
2023/08/04 02:00:18;;;;;;;;;;;;;;;;;;2199362;59;2560;-24
2023/08/04 02:02:48;;;;;;;;;;;;;;;;;;2198133;59;2130;-24
2023/08/04 02:05:19;;;;;;;;;;;;;;;;;;2199290;58;1804;-24
2023/08/04 02:07:49;;;;;;;;;;;;;;;;;;2199265;67;2619;-24
2023/08/04 02:10:19;;;;;;;;;;;;;;;;;;2198798;66;1834;-24
2023/08/04 02:12:49;;;;;;;;;;;;;;;;;;2199235;59;1852;-24
2023/08/04 02:15:22;;;;;;;;;;;;;;;;;;2199147;66;2244;-22
2023/08/04 02:17:52;;;;;;;;;;;;;;;;;;2199622;66;2005;-23
2023/08/04 02:20:22;;;;;;;;;;;;;;;;;;2199192;59;1669;-22
2023/08/04 02:22:52;;;;;;;;;;;;;;;;;;2201316;66;1759;-22
2023/08/04 02:25:23;;;;;;;;;;;;;;;;;;2199072;66;2259;-23
2023/08/04 02:27:53;;;;;;;;;;;;;;;;;;2200799;59;2493;-23
2023/08/04 02:30:23;;;;;;;;;;;;;;;;;;2201596;59;1971;-23
2023/08/04 02:32:53;;;;;;;;;;;;;;;;;;2199408;66;1925;-23
2023/08/04 02:35:23;;;;;;;;;;;;;;;;;;2199059;66;1937;-22
2023/08/04 02:37:54;;;;;;;;;;;;;;;;;;2198725;66;3846;-23
2023/08/04 02:40:24;;;;;;;;;;;;;;;;;;2199494;66;1238;-22
2023/08/04 02:42:54;;;;;;;;;;;;;;;;;;2199479;66;2215;-22
2023/08/04 02:45:24;;;;;;;;;;;;;;;;;;2201432;59;2323;-22
2023/08/04 02:47:54;;;;;;;;;;;;;;;;;;2200272;66;1750;-23
2023/08/04 02:50:25;;;;;;;;;;;;;;;;;;2200553;59;1974;-23
2023/08/04 02:52:55;;;;;;;;;;;;;;;;;;2200341;58;1989;-22
2023/08/04 02:55:28;;;;;;;;;;;;;;;;;;2200200;59;1992;-23
2023/08/04 02:57:59;;;;;;;;;;;;;;;;;;2199154;64;2175;-23
2023/08/04 03:00:30;;;;;;;;;;;;;;;;;;2201238;59;2192;-23
2023/08/04 03:03:00;;;;;;;;;;;;;;;;;;2200002;59;1913;-23
2023/08/04 03:05:34;;;;;;;;;;;;;;;;;;2200841;58;1812;-23
2023/08/04 03:08:04;;;;;;;;;;;;;;;;;;2198435;67;2727;-22
2023/08/04 03:10:34;;;;;;;;;;;;;;;;;;2200366;66;1767;-23
2023/08/04 03:13:04;;;;;;;;;;;;;;;;;;2200338;66;1857;-23
2023/08/04 03:15:35;;;;;;;;;;;;;;;;;;2200457;59;1940;-23
2023/08/04 03:18:05;;;;;;;;;;;;;;;;;;2200319;66;1865;-23
2023/08/04 03:20:36;;;;;;;;;;;;;;;;;;2200315;59;1949;-23
2023/08/04 03:23:07;;;;;;;;;;;;;;;;;;2200619;66;1504;-23
2023/08/04 03:25:37;;;;;;;;;;;;;;;;;;2199747;66;2313;-23
2023/08/04 03:28:07;;;;;;;;;;;;;;;;;;2200022;59;1772;-23
2023/08/04 03:30:37;;;;;;;;;;;;;;;;;;2200161;59;2548;-23
2023/08/04 03:33:08;;;;;;;;;;;;;;;;;;2201813;60;1919;-23
2023/08/04 03:35:38;;;;;;;;;;;;;;;;;;2199245;66;1963;-22
2023/08/04 03:38:08;;;;;;;;;;;;;;;;;;2199786;66;1981;-23
2023/08/04 03:40:38;;;;;;;;;;;;;;;;;;2199203;59;1789;-22
2023/08/04 03:43:08;;;;;;;;;;;;;;;;;;2199635;67;2073;-23
2023/08/04 03:45:39;;;;;;;;;;;;;;;;;;2199511;59;1622;-23
2023/08/04 03:48:09;;;;;;;;;;;;;;;;;;2199927;59;2175;-23
2023/08/04 03:50:39;;;;;;;;;;;;;;;;;;2199604;59;2238;-23
2023/08/04 03:53:09;;;;;;;;;;;;;;;;;;2200572;58;1941;-23
2023/08/04 03:55:40;;;;;;;;;;;;;;;;;;2200325;59;1940;-23
2023/08/04 03:58:10;;;;;;;;;;;;;;;;;;2199203;59;2797;-23
2023/08/04 04:00:40;;;;;;;;;;;;;;;;;;2199788;59;2863;-23
2023/08/04 04:03:10;;;;;;;;;;;;;;;;;;2198390;66;2402;-23
2023/08/04 04:05:40;;;;;;;;;;;;;;;;;;2200043;58;1896;-22
2023/08/04 04:08:11;;;;;;;;;;;;;;;;;;2200742;59;2479;-23
2023/08/04 04:10:41;;;;;;;;;;;;;;;;;;2199694;66;1832;-22
2023/08/04 04:13:11;;;;;;;;;;;;;;;;;;2200691;59;1909;-23
2023/08/04 04:15:41;;;;;;;;;;;;;;;;;;2199892;66;3505;-23
2023/08/04 04:18:12;;;;;;;;;;;;;;;;;;2200070;59;1776;-23
2023/08/04 04:20:42;;;;;;;;;;;;;;;;;;2200468;59;1902;-23
2023/08/04 04:23:12;;;;;;;;;;;;;;;;;;2199635;66;1814;-23
2023/08/04 04:25:42;;;;;;;;;;;;;;;;;;2199094;66;2386;-23
2023/08/04 04:28:12;;;;;;;;;;;;;;;;;;2199803;59;1857;-23
2023/08/04 04:30:43;;;;;;;;;;;;;;;;;;2199105;59;1882;-23
2023/08/04 04:33:13;;;;;;;;;;;;;;;;;;2199835;59;1838;-23
2023/08/04 04:35:46;;;;;;;;;;;;;;;;;;2200938;66;2443;-23
2023/08/04 04:38:17;;;;;;;;;;;;;;;;;;2199869;67;1810;-23
2023/08/04 04:40:57;;;;;;;;;;;;;;;;;;2199136;66;1768;-23
2023/08/04 04:43:30;;;;;;;;;;;;;;;;;;2200810;67;2021;-23
2023/08/04 04:46:01;;;;;;;;;;;;;;;;;;2200812;59;2271;-23
2023/08/04 04:48:31;;;;;;;;;;;;;;;;;;2199962;66;1737;-23
2023/08/04 04:51:01;;;;;;;;;;;;;;;;;;2199494;59;1751;-23
2023/08/04 04:53:31;;;;;;;;;;;;;;;;;;2200312;59;1970;-23
2023/08/04 04:56:01;;;;;;;;;;;;;;;;;;2199820;66;2218;-23
2023/08/04 04:58:32;;;;;;;;;;;;;;;;;;2200012;66;2414;-23
2023/08/04 05:01:03;;;;;;;;;;;;;;;;;;2200159;59;2583;-23
2023/08/04 05:03:33;;;;;;;;;;;;;;;;;;2199603;59;2320;-23
2023/08/04 05:06:03;;;;;;;;;;;;;;;;;;2199187;66;2539;-23
2023/08/04 05:08:33;;;;;;;;;;;;;;;;;;2199108;67;3047;-23
2023/08/04 05:11:03;;;;;;;;;;;;;;;;;;2199294;59;2630;-23
2023/08/04 05:13:34;;;;;;;;;;;;;;;;;;2199717;59;1964;-23
2023/08/04 05:16:04;;;;;;;;;;;;;;;;;;2201434;66;2008;-23
2023/08/04 05:18:35;;;;;;;;;;;;;;;;;;2200235;66;1757;-23
2023/08/04 05:21:05;;;;;;;;;;;;;;;;;;2199920;59;1986;-23
2023/08/04 05:23:35;;;;;;;;;;;;;;;;;;2200014;59;2074;-23
2023/08/04 05:26:05;;;;;;;;;;;;;;;;;;2200272;59;2586;-23
2023/08/04 05:28:35;;;;;;;;;;;;;;;;;;2199817;66;2679;-23
2023/08/04 05:31:08;;;;;;;;;;;;;;;;;;2198919;59;2112;-23
2023/08/04 05:33:38;;;;;;;;;;;;;;;;;;2200959;59;2501;-23
2023/08/04 05:36:08;;;;;;;;;;;;;;;;;;2200061;66;2871;-23
2023/08/04 05:38:39;;;;;;;;;;;;;;;;;;2199720;59;2049;-23
2023/08/04 05:41:09;;;;;;;;;;;;;;;;;;2199583;66;2601;-23
2023/08/04 05:43:39;;;;;;;;;;;;;;;;;;2200593;66;2428;-23
2023/08/04 05:46:12;;;;;;;;;;;;;;;;;;2195886;59;2737;-23
2023/08/04 05:48:42;;;;;;;;;;;;;;;;;;2200408;66;2148;-23
2023/08/04 05:51:14;;;;;;;;;;;;;;;;;;2199500;59;2091;-23
2023/08/04 05:53:44;;;;;;;;;;;;;;;;;;2200299;58;2428;-23
2023/08/04 05:56:14;;;;;;;;;;;;;;;;;;2199490;59;2099;-23
2023/08/04 05:58:45;;;;;;;;;;;;;;;;;;2199678;66;2644;-23
2023/08/04 06:01:15;;;;;;;;;;;;;;;;;;2198722;59;3410;-23
2023/08/04 06:03:45;;;;;;;;;;;;;;;;;;2199986;58;2723;-23
2023/08/04 06:06:15;;;;;;;;;;;;;;;;;;2199013;66;2071;-23
2023/08/04 06:08:46;;;;;;;;;;;;;;;;;;2201159;66;2058;-23
2023/08/04 06:11:16;;;;;;;;;;;;;;;;;;2198801;59;2574;-23
2023/08/04 06:13:46;;;;;;;;;;;;;;;;;;2199183;59;1992;-23
2023/08/04 06:16:16;;;;;;;;;;;;;;;;;;2200074;59;2620;-23
2023/08/04 06:18:47;;;;;;;;;;;;;;;;;;2199992;66;1820;-23
2023/08/04 06:21:17;;;;;;;;;;;;;;;;;;2199899;59;2095;-24
2023/08/04 06:23:47;;;;;;;;;;;;;;;;;;2199765;66;1988;-23
2023/08/04 06:26:18;;;;;;;;;;;;;;;;;;2199635;59;1818;-23
2023/08/04 06:28:48;;;;;;;;;;;;;;;;;;2200582;66;1821;-24
2023/08/04 06:31:18;;;;;;;;;;;;;;;;;;2200472;59;2252;-24
2023/08/04 06:33:48;;;;;;;;;;;;;;;;;;2200216;59;2714;-23
2023/08/04 06:36:22;;;;;;;;;;;;;;;;;;2198294;66;2033;-24
2023/08/04 06:38:53;;;;;;;;;;;;;;;;;;2199187;66;1664;-24
2023/08/04 06:41:23;;;;;;;;;;;;;;;;;;2199102;59;1854;-23
2023/08/04 06:43:53;;;;;;;;;;;;;;;;;;2199211;66;1869;-24
2023/08/04 06:46:23;;;;;;;;;;;;;;;;;;2200749;59;2483;-24
2023/08/04 06:48:54;;;;;;;;;;;;;;;;;;2198226;59;2023;-23
2023/08/04 06:51:24;;;;;;;;;;;;;;;;;;2200535;59;1878;-24
2023/08/04 06:53:55;;;;;;;;;;;;;;;;;;2199216;59;1933;-24
2023/08/04 06:56:25;;;;;;;;;;;;;;;;;;2203824;66;2274;-23
2023/08/04 06:58:55;;;;;;;;;;;;;;;;;;2199382;67;1247;-24
2023/08/04 07:01:25;;;;;;;;;;;;;;;;;;2200259;59;2724;-24
2023/08/04 07:03:55;;;;;;;;;;;;;;;;;;2199074;59;2675;-24
2023/08/04 07:06:26;;;;;;;;;;;;;;;;;;2200545;66;2420;-24
2023/08/04 07:08:56;;;;;;;;;;;;;;;;;;2196808;67;2522;-24
2023/08/04 07:11:26;;;;;;;;;;;;;;;;;;2198295;59;1768;-24
2023/08/04 07:13:56;;;;;;;;;;;;;;;;;;2198461;66;1987;-24
2023/08/04 07:16:27;;;;;;;;;;;;;;;;;;2199356;59;1988;-24
2023/08/04 07:18:57;;;;;;;;;;;;;;;;;;2199527;66;2524;-24
2023/08/04 07:21:27;;;;;;;;;;;;;;;;;;2201183;59;1756;-24
2023/08/04 07:23:57;;;;;;;;;;;;;;;;;;2200137;66;1889;-24
2023/08/04 07:26:27;;;;;;;;;;;;;;;;;;2200049;66;2367;-24
2023/08/04 07:28:58;;;;;;;;;;;;;;;;;;2200979;66;1924;-24
2023/08/04 07:31:28;;;;;;;;;;;;;;;;;;2199305;59;3065;-24
2023/08/04 07:33:59;;;;;;;;;;;;;;;;;;2199803;59;1997;-24
2023/08/04 07:36:29;;;;;;;;;;;;;;;;;;2200050;66;1836;-24
2023/08/04 07:38:59;;;;;;;;;;;;;;;;;;2199841;66;1862;-24
2023/08/04 07:41:30;;;;;;;;;;;;;;;;;;2199640;66;1775;-24
2023/08/04 07:44:00;;;;;;;;;;;;;;;;;;2199519;59;2826;-24
2023/08/04 07:46:30;;;;;;;;;;;;;;;;;;2197518;58;2705;-24
2023/08/04 07:49:01;;;;;;;;;;;;;;;;;;2200015;66;2891;-24
2023/08/04 07:51:31;;;;;;;;;;;;;;;;;;2200143;59;1658;-24
2023/08/04 07:54:01;;;;;;;;;;;;;;;;;;2199905;59;2092;-24
2023/08/04 07:56:34;;;;;;;;;;;;;;;;;;2200226;66;2412;-24
2023/08/04 07:59:05;;;;;;;;;;;;;;;;;;2200684;66;1835;-24
2023/08/04 08:01:35;;;;;;;;;;;;;;;;;;2199761;59;2247;-24
2023/08/04 08:04:05;;;;;;;;;;;;;;;;;;2198510;59;2461;-24
2023/08/04 08:06:38;;;;;;;;;;;;;;;;;;2199518;67;3196;-24
2023/08/04 08:09:09;;;;;;;;;;;;;;;;;;2200533;66;2276;-24
2023/08/04 08:11:39;;;;;;;;;;;;;;;;;;2202489;59;1783;-24
2023/08/04 08:14:10;;;;;;;;;;;;;;;;;;2198923;66;2709;-24
2023/08/04 08:16:40;;;;;;;;;;;;;;;;;;2198763;66;1753;-24
2023/08/04 08:19:10;;;;;;;;;;;;;;;;;;2199432;66;2057;-24
2023/08/04 08:21:42;;;;;;;;;;;;;;;;;;2206015;53;1912;-23
2023/08/04 08:24:12;;;;;;;;;;;;;;;;;;2198269;66;1941;-22
2023/08/04 08:26:46;;;;;;;;;;;;;;;;;;2200949;59;1650;-22
2023/08/04 08:29:16;;;;;;;;;;;;;;;;;;2200962;66;1798;-22
2023/08/04 08:31:46;;;;;;;;;;;;;;;;;;2197761;59;1803;-22
2023/08/04 08:34:17;;;;;;;;;;;;;;;;;;2197483;59;1993;-22
2023/08/04 08:36:47;;;;;;;;;;;;;;;;;;2195680;67;2894;-23
2023/08/04 08:39:17;;;;;;;;;;;;;;;;;;2195266;67;1751;-22
2023/08/04 08:41:48;;;;;;;;;;;;;;;;;;2195612;67;2000;-22
2023/08/04 08:44:18;;;;;;;;;;;;;;;;;;2195042;59;1764;-22
2023/08/04 08:46:49;;;;;;;;;;;;;;;;;;2195734;67;1683;-23
2023/08/04 08:49:25;;;;;;;;;;;;;;;;;;2197987;66;3101;-22
2023/08/04 08:51:58;;;;;;;;;;;;;;;;;;2195539;59;2224;-23
2023/08/04 08:54:29;;;;;;;;;;;;;;;;;;2195886;59;1924;-23
2023/08/04 08:56:59;;;;;;;;;;;;;;;;;;2210443;59;1237;-23
2023/08/04 08:59:31;;;;;;;;;;;;;;;;;;2196909;67;1699;-23
2023/08/04 09:02:02;;;;;;;;;;;;;;;;;;2195637;59;1248;-23
2023/08/04 09:04:33;;;;;;;;;;;;;;;;;;2197165;59;2924;-23
2023/08/04 09:07:04;;;;;;;;;;;;;;;;;;2197743;66;2028;-23
2023/08/04 09:09:35;;;;;;;;;;;;;;;;;;2195693;67;2506;-23
2023/08/04 09:12:05;;;;;;;;;;;;;;;;;;2195040;59;2770;-23
2023/08/04 09:14:48;;;;;;;;;;;;;;;;;;2195982;67;2777;-23
2023/08/04 09:17:29;;;;;;;;;;;;;;;;;;2193773;67;2092;-22
2023/08/04 09:20:01;;;;;;;;;;;;;;;;;;2194059;66;2003;-23
2023/08/04 09:22:34;;;;;;;;;;;;;;;;;;2195272;66;1742;-23
2023/08/04 09:25:05;;;;;;;;;;;;;;;;;;2197829;66;2390;-23
2023/08/04 09:27:39;;;;;;;;;;;;;;;;;;2197723;59;2371;-23
2023/08/04 09:30:10;;;;;;;;;;;;;;;;;;2197860;66;3266;-22
2023/08/04 09:32:42;;;;;;;;;;;;;;;;;;2195448;59;1318;-23
2023/08/04 09:35:13;;;;;;;;;;;;;;;;;;2194692;67;2046;-23
2023/08/04 09:37:43;;;;;;;;;;;;;;;;;;2195520;67;1972;-23
2023/08/04 09:40:13;;;;;;;;;;;;;;;;;;2194935;67;1767;-22
2023/08/04 09:42:44;;;;;;;;;;;;;;;;;;2196377;67;1884;-23
2023/08/04 09:45:15;;;;;;;;;;;;;;;;;;2194783;59;2286;-22
2023/08/04 09:47:50;;;;;;;;;;;;;;;;;;2197280;59;1782;-22
2023/08/04 09:50:21;;;;;;;;;;;;;;;;;;2195650;59;1867;-22
2023/08/04 09:53:01;;;;;;;;;;;;;;;;;;2195986;58;1792;-22
2023/08/04 09:55:31;;;;;;;;;;;;;;;;;;2195414;59;1962;-22
2023/08/04 09:58:02;;;;;;;;;;;;;;;;;;2210299;66;2328;-22
2023/08/04 10:00:32;;;;;;;;;;;;;;;;;;2196103;59;1840;-22
2023/08/04 10:03:02;;;;;;;;;;;;;;;;;;2195488;67;1778;-22
2023/08/04 10:05:33;;;;;;;;;;;;;;;;;;2195726;58;2621;-22
2023/08/04 10:08:05;;;;;;;;;;;;;;;;;;2194000;67;1772;-22
2023/08/04 10:10:38;;;;;;;;;;;;;;;;;;2197085;66;1916;-20
2023/08/04 10:13:08;;;;;;;;;;;;;;;;;;2195950;59;1831;-20
2023/08/04 10:15:39;;;;;;;;;;;;;;;;;;2195922;67;1953;-20
2023/08/04 10:18:09;;;;;;;;;;;;;;;;;;2195103;67;1543;-21
2023/08/04 10:20:40;;;;;;;;;;;;;;;;;;2196083;59;1999;-21
2023/08/04 10:23:13;;;;;;;;;;;;;;;;;;2196297;67;1670;-20
2023/08/04 10:25:56;;;;;;;;;;;;;;;;;;2196662;67;1490;-20
2023/08/04 10:28:30;;;;;;;;;;;;;;;;;;2197943;67;1489;-20
2023/08/04 10:31:04;;;;;;;;;;;;;;;;;;2195246;59;1599;-20
2023/08/04 10:33:34;;;;;;;;;;;;;;;;;;2196329;59;2183;-20
2023/08/04 10:36:07;;;;;;;;;;;;;;;;;;2195940;67;1941;-20
2023/08/04 10:38:44;;;;;;;;;;;;;;;;;;2195716;67;1346;-20
2023/08/04 10:41:15;;;;;;;;;;;;;;;;;;2193432;67;1667;-20
2023/08/04 10:44:08;;;;;;;;;;;;;;;;;;2198403;66;1882;-20
2023/08/04 10:46:39;;;;;;;;;;;;;;;;;;2196252;59;1639;-20
2023/08/04 10:49:09;;;;;;;;;;;;;;;;;;2195358;66;1856;-20
2023/08/04 10:51:40;;;;;;;;;;;;;;;;;;2196259;59;1740;-20
2023/08/04 10:54:10;;;;;;;;;;;;;;;;;;2196357;58;1990;-20
2023/08/04 10:56:45;;;;;;;;;;;;;;;;;;2196596;59;1499;-20
2023/08/04 10:59:15;;;;;;;;;;;;;;;;;;2195627;67;1168;-20
2023/08/04 11:01:46;;;;;;;;;;;;;;;;;;2196141;59;1264;-20
2023/08/04 11:04:16;;;;;;;;;;;;;;;;;;2195769;58;2676;-20
2023/08/04 11:06:47;;;;;;;;;;;;;;;;;;2195121;59;2428;-20
2023/08/04 11:09:17;;;;;;;;;;;;;;;;;;2195551;67;2102;-22
2023/08/04 11:11:47;;;;;;;;;;;;;;;;;;2195774;59;1886;-23
2023/08/04 11:14:17;;;;;;;;;;;;;;;;;;2194989;67;1929;-22
2023/08/04 11:16:49;;;;;;;;;;;;;;;;;;2197953;66;1789;-22
2023/08/04 11:19:20;;;;;;;;;;;;;;;;;;2195297;67;2628;-20
2023/08/04 11:21:50;;;;;;;;;;;;;;;;;;2195826;59;1787;-20
2023/08/04 11:24:24;;;;;;;;;;;;;;;;;;2195748;59;2389;-20
2023/08/04 11:26:54;;;;;;;;;;;;;;;;;;2195803;59;1953;-20
2023/08/04 11:29:25;;;;;;;;;;;;;;;;;;2195528;66;1934;-20
2023/08/04 11:31:55;;;;;;;;;;;;;;;;;;2196041;59;1769;-20
2023/08/04 11:34:26;;;;;;;;;;;;;;;;;;2195882;66;2330;-20
2023/08/04 11:36:57;;;;;;;;;;;;;;;;;;2195714;67;1900;-20
2023/08/04 11:39:28;;;;;;;;;;;;;;;;;;2195447;63;2005;-20
2023/08/04 11:41:58;;;;;;;;;;;;;;;;;;2195287;67;1774;-20
2023/08/04 11:44:32;;;;;;;;;;;;;;;;;;2195395;59;1837;-20
2023/08/04 11:47:03;;;;;;;;;;;;;;;;;;2196152;67;1728;-20
2023/08/04 11:49:34;;;;;;;;;;;;;;;;;;2200479;66;2453;-20
2023/08/04 11:52:11;;;;;;;;;;;;;;;;;;2196252;58;1471;-20
2023/08/04 11:54:51;;;;;;;;;;;;;;;;;;2196800;60;1998;-20
2023/08/04 11:57:22;;;;;;;;;;;;;;;;;;2200451;59;2022;-20
2023/08/04 11:59:53;;;;;;;;;;;;;;;;;;2202580;59;2484;-20
2023/08/04 12:02:24;;;;;;;;;;;;;;;;;;2204295;63;1966;-20
2023/08/04 12:05:11;;;;;;;;;;;;;;;;;;2198087;58;1978;-20
2023/08/04 12:07:41;;;;;;;;;;;;;;;;;;2195560;66;2723;-20
2023/08/04 12:10:12;;;;;;;;;;;;;;;;;;2196264;67;1796;-20
2023/08/04 12:12:42;;;;;;;;;;;;;;;;;;2195599;59;1858;-20
2023/08/04 12:15:12;;;;;;;;;;;;;;;;;;2194207;67;1955;-20
2023/08/04 12:17:43;;;;;;;;;;;;;;;;;;2198214;67;1880;-22
2023/08/04 12:20:14;;;;;;;;;;;;;;;;;;2195150;59;1993;-22
2023/08/04 12:22:44;;;;;;;;;;;;;;;;;;2194383;67;1781;-22
2023/08/04 12:25:17;;;;;;;;;;;;;;;;;;2197640;66;2067;-22
2023/08/04 12:27:48;;;;;;;;;;;;;;;;;;2194864;59;2648;-22
2023/08/04 12:30:18;;;;;;;;;;;;;;;;;;2197251;59;1756;-22
2023/08/04 12:32:48;;;;;;;;;;;;;;;;;;2196098;59;1983;-22
2023/08/04 12:35:18;;;;;;;;;;;;;;;;;;2196107;67;1986;-22
2023/08/04 12:37:49;;;;;;;;;;;;;;;;;;2194948;67;1196;-22
2023/08/04 12:40:19;;;;;;;;;;;;;;;;;;2195772;67;1901;-22
2023/08/04 12:42:49;;;;;;;;;;;;;;;;;;2196446;67;1882;-22
2023/08/04 12:45:19;;;;;;;;;;;;;;;;;;2196808;59;2852;-22
2023/08/04 12:47:49;;;;;;;;;;;;;;;;;;2195877;67;1857;-22
2023/08/04 12:50:22;;;;;;;;;;;;;;;;;;2195810;59;2480;-22
2023/08/04 12:52:53;;;;;;;;;;;;;;;;;;2196408;59;1501;-22
2023/08/04 12:55:23;;;;;;;;;;;;;;;;;;2195185;59;2742;-22
2023/08/04 12:57:53;;;;;;;;;;;;;;;;;;2195784;59;1761;-22
2023/08/04 13:00:23;;;;;;;;;;;;;;;;;;2195574;59;2636;-20
2023/08/04 13:02:54;;;;;;;;;;;;;;;;;;2195468;66;1756;-20
2023/08/04 13:05:24;;;;;;;;;;;;;;;;;;2196531;58;1752;-20
2023/08/04 13:07:56;;;;;;;;;;;;;;;;;;2194714;60;3007;-20
2023/08/04 13:10:26;;;;;;;;;;;;;;;;;;2194696;59;2168;-20
2023/08/04 13:12:56;;;;;;;;;;;;;;;;;;2195735;67;2686;-20
2023/08/04 13:15:28;;;;;;;;;;;;;;;;;;2197489;66;1936;-20
2023/08/04 13:17:58;;;;;;;;;;;;;;;;;;2194662;67;1724;-20
2023/08/04 13:20:29;;;;;;;;;;;;;;;;;;2194815;59;2148;-20
2023/08/04 13:23:02;;;;;;;;;;;;;;;;;;2195531;67;2607;-20
2023/08/04 13:25:36;;;;;;;;;;;;;;;;;;2195684;67;2339;-20
2023/08/04 13:28:06;;;;;;;;;;;;;;;;;;2195786;59;1728;-20
2023/08/04 13:30:36;;;;;;;;;;;;;;;;;;2195457;67;2025;-20
2023/08/04 13:33:06;;;;;;;;;;;;;;;;;;2195068;59;1793;-20
2023/08/04 13:35:37;;;;;;;;;;;;;;;;;;2195552;66;1937;-20
2023/08/04 13:38:07;;;;;;;;;;;;;;;;;;2195277;67;1798;-20
2023/08/04 13:40:37;;;;;;;;;;;;;;;;;;2195621;67;1911;-20
2023/08/04 13:43:07;;;;;;;;;;;;;;;;;;2195540;67;1460;-20
2023/08/04 13:45:37;;;;;;;;;;;;;;;;;;2195551;59;1784;-21
2023/08/04 13:48:08;;;;;;;;;;;;;;;;;;2197752;66;1672;-22
2023/08/04 13:50:38;;;;;;;;;;;;;;;;;;2196085;59;1914;-22
2023/08/04 13:53:09;;;;;;;;;;;;;;;;;;2197971;58;1949;-22
2023/08/04 13:55:40;;;;;;;;;;;;;;;;;;2200934;59;2387;-22
2023/08/04 13:58:10;;;;;;;;;;;;;;;;;;2198289;59;2720;-22
2023/08/04 14:00:41;;;;;;;;;;;;;;;;;;2198054;59;2407;-22
2023/08/04 14:03:11;;;;;;;;;;;;;;;;;;2198057;67;3622;-22
2023/08/04 14:05:41;;;;;;;;;;;;;;;;;;2195792;59;2375;-22
2023/08/04 14:08:11;;;;;;;;;;;;;;;;;;2196660;67;2804;-22
2023/08/04 14:10:43;;;;;;;;;;;;;;;;;;2197643;64;2947;-22
2023/08/04 14:13:19;;;;;;;;;;;;;;;;;;2198172;59;1797;-22
2023/08/04 14:15:49;;;;;;;;;;;;;;;;;;2197712;67;3035;-22
2023/08/04 14:18:20;;;;;;;;;;;;;;;;;;2198045;67;1778;-22
2023/08/04 14:20:50;;;;;;;;;;;;;;;;;;2197718;59;1975;-23
2023/08/04 14:23:20;;;;;;;;;;;;;;;;;;2197197;67;1776;-22
2023/08/04 14:25:50;;;;;;;;;;;;;;;;;;2198000;59;2451;-22
2023/08/04 14:28:21;;;;;;;;;;;;;;;;;;2195235;67;1683;-22
2023/08/04 14:30:51;;;;;;;;;;;;;;;;;;2195638;59;3766;-22
2023/08/04 14:33:21;;;;;;;;;;;;;;;;;;2194813;59;1861;-22
2023/08/04 14:35:52;;;;;;;;;;;;;;;;;;2195385;67;1918;-22
2023/08/04 14:38:22;;;;;;;;;;;;;;;;;;2195243;67;1556;-22
2023/08/04 14:40:52;;;;;;;;;;;;;;;;;;2195985;59;2653;-22
2023/08/04 14:43:23;;;;;;;;;;;;;;;;;;2195722;59;2010;-22
2023/08/04 14:45:53;;;;;;;;;;;;;;;;;;2194865;59;2091;-22
2023/08/04 14:48:23;;;;;;;;;;;;;;;;;;2195343;59;1805;-22
2023/08/04 14:50:53;;;;;;;;;;;;;;;;;;2195679;59;1800;-22
2023/08/04 14:53:23;;;;;;;;;;;;;;;;;;2195500;59;2438;-22
2023/08/04 14:55:54;;;;;;;;;;;;;;;;;;2195166;59;2038;-22
2023/08/04 14:58:24;;;;;;;;;;;;;;;;;;2195634;59;1816;-22
2023/08/04 15:00:54;;;;;;;;;;;;;;;;;;2195081;59;1938;-22
2023/08/04 15:03:24;;;;;;;;;;;;;;;;;;2194654;62;1740;-22
2023/08/04 15:05:54;;;;;;;;;;;;;;;;;;2194402;58;1706;-22
2023/08/04 15:08:25;;;;;;;;;;;;;;;;;;2194892;59;2227;-22
2023/08/04 15:10:59;;;;;;;;;;;;;;;;;;2194601;59;3153;-22
2023/08/04 15:13:29;;;;;;;;;;;;;;;;;;2194790;59;1850;-22
2023/08/04 15:16:06;;;;;;;;;;;;;;;;;;2194348;59;2091;-22
2023/08/04 15:18:36;;;;;;;;;;;;;;;;;;2194710;67;1858;-22
2023/08/04 15:21:06;;;;;;;;;;;;;;;;;;2196434;59;1910;-22
2023/08/04 15:23:37;;;;;;;;;;;;;;;;;;2196616;66;1940;-22
2023/08/04 15:26:07;;;;;;;;;;;;;;;;;;2198142;66;2123;-21
2023/08/04 15:28:37;;;;;;;;;;;;;;;;;;2196252;66;1964;-21
2023/08/04 15:31:08;;;;;;;;;;;;;;;;;;2193904;59;1708;-22
2023/08/04 15:33:38;;;;;;;;;;;;;;;;;;2195626;59;2115;-21
2023/08/04 15:36:09;;;;;;;;;;;;;;;;;;2194677;67;2233;-22
2023/08/04 15:38:39;;;;;;;;;;;;;;;;;;2195190;67;1657;-21
2023/08/04 15:41:13;;;;;;;;;;;;;;;;;;2195595;67;2238;-21
2023/08/04 15:43:44;;;;;;;;;;;;;;;;;;2196483;67;1751;-22
2023/08/04 15:46:14;;;;;;;;;;;;;;;;;;2196440;59;2587;-21
2023/08/04 15:48:44;;;;;;;;;;;;;;;;;;2195931;59;1980;-22
2023/08/04 15:51:15;;;;;;;;;;;;;;;;;;2196052;59;1892;-21
2023/08/04 15:53:51;;;;;;;;;;;;;;;;;;2196620;58;1723;-21
2023/08/04 15:56:21;;;;;;;;;;;;;;;;;;2195728;59;1973;-21
2023/08/04 15:58:51;;;;;;;;;;;;;;;;;;2195874;67;1839;-21
2023/08/04 16:01:22;;;;;;;;;;;;;;;;;;2195926;59;1797;-21
2023/08/04 16:03:52;;;;;;;;;;;;;;;;;;2195683;58;2326;-21
2023/08/04 16:06:22;;;;;;;;;;;;;;;;;;2198282;59;1759;-21
2023/08/04 16:08:52;;;;;;;;;;;;;;;;;;2195533;67;2366;-22
2023/08/04 16:11:22;;;;;;;;;;;;;;;;;;2195407;59;2758;-21
2023/08/04 16:13:53;;;;;;;;;;;;;;;;;;2199652;59;2089;-21
2023/08/04 16:16:23;;;;;;;;;;;;;;;;;;2204461;66;1969;-21
2023/08/04 16:18:53;;;;;;;;;;;;;;;;;;2199649;67;1973;-21
2023/08/04 16:21:25;;;;;;;;;;;;;;;;;;2196611;59;1437;-21
2023/08/04 16:23:55;;;;;;;;;;;;;;;;;;2195566;67;1740;-22
2023/08/04 16:26:26;;;;;;;;;;;;;;;;;;2196763;59;1985;-22
2023/08/04 16:28:59;;;;;;;;;;;;;;;;;;2195403;67;1976;-22
2023/08/04 16:31:29;;;;;;;;;;;;;;;;;;2196647;59;2573;-22
2023/08/04 16:34:00;;;;;;;;;;;;;;;;;;2195945;59;2053;-22
2023/08/04 16:36:30;;;;;;;;;;;;;;;;;;2194911;67;1955;-22
2023/08/04 16:39:03;;;;;;;;;;;;;;;;;;2196390;59;2686;-22
2023/08/04 16:41:33;;;;;;;;;;;;;;;;;;2196212;67;2659;-22
2023/08/04 16:44:04;;;;;;;;;;;;;;;;;;2196414;67;1614;-21
2023/08/04 16:46:34;;;;;;;;;;;;;;;;;;2196033;59;1780;-21
2023/08/04 16:49:04;;;;;;;;;;;;;;;;;;2196137;67;1697;-21
2023/08/04 16:51:34;;;;;;;;;;;;;;;;;;2198840;59;1781;-21
2023/08/04 16:54:05;;;;;;;;;;;;;;;;;;2195454;59;1811;-22
2023/08/04 16:56:35;;;;;;;;;;;;;;;;;;2196532;59;1949;-21
2023/08/04 16:59:06;;;;;;;;;;;;;;;;;;2198377;66;1801;-21
2023/08/04 17:01:36;;;;;;;;;;;;;;;;;;2195777;59;1885;-22
2023/08/04 17:04:06;;;;;;;;;;;;;;;;;;2195409;58;2012;-22
2023/08/04 17:06:37;;;;;;;;;;;;;;;;;;2195497;59;2121;-21
2023/08/04 17:09:07;;;;;;;;;;;;;;;;;;2195494;67;1856;-22
2023/08/04 17:11:37;;;;;;;;;;;;;;;;;;2194977;59;2752;-21
2023/08/04 17:14:14;;;;;;;;;;;;;;;;;;2195208;59;2311;-21
2023/08/04 17:16:44;;;;;;;;;;;;;;;;;;2194957;67;2026;-21
2023/08/04 17:19:15;;;;;;;;;;;;;;;;;;2198014;66;1995;-21
2023/08/04 17:21:45;;;;;;;;;;;;;;;;;;2195454;59;2693;-21
2023/08/04 17:24:15;;;;;;;;;;;;;;;;;;2195286;67;2247;-21
2023/08/04 17:26:48;;;;;;;;;;;;;;;;;;2195222;59;1828;-22
2023/08/04 17:29:18;;;;;;;;;;;;;;;;;;2195127;67;2223;-21